Time;durP1;ratioP1;P1;durP2;ratioP2;P2;SDS_P1;SDS_P2;PMS_P1;PMS_P2;Temp;Humidity;BMP_temperature;BMP_pressure;BME280_temperature;BME280_humidity;BME280_pressure;Samples;Min_cycle;Max_cycle;Signal;HPM_P1;HPM_P2
2023/07/16 00:01:14;;;;;;;1.93;1.70;;;24.70;97.80;;;;;;5001474;28;20960;-54
2023/07/16 00:03:42;;;;;;;1.90;1.73;;;24.70;97.80;;;;;;4999474;28;20964;-54
2023/07/16 00:06:08;;;;;;;1.67;1.57;;;24.70;97.80;;;;;;5001432;28;20484;-52
2023/07/16 00:08:35;;;;;;;2.37;1.80;;;24.70;97.80;;;;;;5002042;28;20483;-53
2023/07/16 00:11:04;;;;;;;2.00;1.80;;;24.70;97.80;;;;;;5000484;28;20464;-54
2023/07/16 00:13:30;;;;;;;2.40;1.80;;;24.70;97.80;;;;;;5001868;28;20460;-55
2023/07/16 00:15:57;;;;;;;1.77;1.67;;;24.70;97.80;;;;;;5000727;28;20463;-53
2023/07/16 00:18:24;;;;;;;2.83;2.03;;;24.70;97.80;;;;;;5005682;28;21074;-52
2023/07/16 00:20:52;;;;;;;2.40;2.20;;;24.70;97.70;;;;;;5006415;28;20451;-54
2023/07/16 00:23:18;;;;;;;2.00;1.80;;;24.70;97.70;;;;;;4998260;28;20828;-54
2023/07/16 00:25:45;;;;;;;2.10;1.83;;;24.70;97.70;;;;;;4998076;28;20467;-54
2023/07/16 00:28:12;;;;;;;1.60;1.50;;;24.70;97.70;;;;;;4999078;28;20478;-56
2023/07/16 00:30:39;;;;;;;2.33;1.87;;;24.70;97.70;;;;;;4998687;28;20547;-57
2023/07/16 00:33:05;;;;;;;2.23;2.03;;;24.70;97.70;;;;;;4995382;28;20475;-55
2023/07/16 00:35:32;;;;;;;2.40;1.70;;;24.70;97.60;;;;;;4997841;28;20490;-55
2023/07/16 00:38:00;;;;;;;1.70;1.60;;;24.70;97.60;;;;;;5004615;28;20459;-54
2023/07/16 00:40:27;;;;;;;3.30;1.80;;;24.70;97.60;;;;;;5005931;28;20460;-55
2023/07/16 00:42:53;;;;;;;1.70;1.43;;;24.70;97.60;;;;;;5005452;28;20474;-55
2023/07/16 00:45:20;;;;;;;1.97;1.70;;;24.70;97.60;;;;;;5004587;28;20919;-56
2023/07/16 00:47:47;;;;;;;1.77;1.67;;;24.70;97.60;;;;;;5006235;28;20479;-52
2023/07/16 00:50:14;;;;;;;1.80;1.60;;;24.70;97.50;;;;;;5005352;28;20474;-55
2023/07/16 00:52:41;;;;;;;2.17;1.63;;;24.70;97.50;;;;;;5003339;28;20487;-55
2023/07/16 00:55:10;;;;;;;2.27;1.87;;;24.70;97.50;;;;;;5004191;28;20467;-53
2023/07/16 00:57:37;;;;;;;2.10;1.90;;;24.60;97.40;;;;;;5004781;28;20793;-56
2023/07/16 01:00:04;;;;;;;2.27;2.07;;;24.60;97.40;;;;;;5003057;28;20459;-54
2023/07/16 01:02:31;;;;;;;2.90;2.10;;;24.60;97.40;;;;;;5002936;28;20968;-54
2023/07/16 01:04:58;;;;;;;2.03;1.83;;;24.60;97.40;;;;;;5005822;28;20454;-53
2023/07/16 01:07:27;;;;;;;2.20;2.10;;;24.60;97.40;;;;;;5002418;28;20975;-52
2023/07/16 01:09:55;;;;;;;2.20;2.00;;;24.60;97.30;;;;;;5005148;28;20466;-54
2023/07/16 01:12:24;;;;;;;3.00;2.00;;;24.60;97.30;;;;;;5003284;28;20554;-52
2023/07/16 01:14:52;;;;;;;2.00;1.80;;;24.60;97.30;;;;;;5008618;28;20481;-53
2023/07/16 01:17:19;;;;;;;1.97;1.77;;;24.60;97.30;;;;;;5003101;28;20558;-53
2023/07/16 01:19:46;;;;;;;2.30;2.10;;;24.60;97.30;;;;;;5008236;28;20466;-55
2023/07/16 01:22:43;;;;;;;2.37;1.43;;;24.70;97.30;;;;;;5005888;28;21003;-54
2023/07/16 01:25:21;;;;;;;2.80;1.80;;;24.60;97.20;;;;;;5008603;28;20463;-57
2023/07/16 01:28:14;;;;;;;2.30;1.83;;;24.60;97.20;;;;;;5011615;28;20487;-58
2023/07/16 01:30:45;;;;;;;2.43;1.93;;;24.60;97.10;;;;;;5001523;28;20501;-55
2023/07/16 01:33:14;;;;;;;1.30;1.20;;;24.60;97.20;;;;;;5015285;28;20842;-54
2023/07/16 01:35:43;;;;;;;1.97;1.77;;;24.60;97.10;;;;;;5019678;28;21010;-55
2023/07/16 01:38:13;;;;;;;2.27;1.57;;;24.60;97.20;;;;;;5020264;28;20466;-54
2023/07/16 01:40:40;;;;;;;2.03;1.70;;;24.60;97.10;;;;;;5017335;28;20465;-54
2023/07/16 01:43:07;;;;;;;1.80;1.70;;;24.60;97.10;;;;;;5020043;28;20467;-53
2023/07/16 01:45:33;;;;;;;2.60;1.70;;;24.60;97.10;;;;;;5015362;28;20531;-57
2023/07/16 01:48:11;;;;;;;2.20;1.70;;;24.60;97.10;;;;;;5013158;28;21107;-58
2023/07/16 01:50:38;;;;;;;2.10;1.90;;;24.60;97.00;;;;;;5020777;28;20462;-58
2023/07/16 01:53:05;;;;;;;1.90;1.60;;;24.60;97.10;;;;;;5006791;28;20467;-57
2023/07/16 01:55:31;;;;;;;2.13;1.93;;;24.60;97.00;;;;;;5004800;28;20517;-55
2023/07/16 01:57:58;;;;;;;1.67;1.57;;;24.60;97.00;;;;;;5005434;28;20468;-56
2023/07/16 02:00:25;;;;;;;2.23;1.73;;;24.60;97.00;;;;;;5003728;28;20470;-55
2023/07/16 02:02:52;;;;;;;2.20;1.73;;;24.60;97.00;;;;;;5004944;28;20464;-54
2023/07/16 02:05:20;;;;;;;2.10;1.80;;;24.60;97.00;;;;;;5002831;28;20468;-52
2023/07/16 02:07:46;;;;;;;1.53;1.30;;;24.60;97.00;;;;;;5005050;28;20889;-55
2023/07/16 02:10:13;;;;;;;1.80;1.70;;;24.60;96.90;;;;;;5004437;28;20470;-56
2023/07/16 02:12:40;;;;;;;2.00;1.57;;;24.60;96.90;;;;;;5003277;28;20979;-54
2023/07/16 02:15:07;;;;;;;1.77;1.67;;;24.60;96.90;;;;;;5001695;28;20472;-55
2023/07/16 02:17:34;;;;;;;1.60;1.50;;;24.60;96.90;;;;;;5001555;28;20470;-53
2023/07/16 02:20:01;;;;;;;1.70;1.40;;;24.60;96.90;;;;;;5002174;28;20478;-57
2023/07/16 02:22:29;;;;;;;2.20;1.77;;;24.60;96.90;;;;;;5004355;28;20467;-53
2023/07/16 02:24:55;;;;;;;2.13;1.77;;;24.60;96.90;;;;;;5002977;28;21025;-53
2023/07/16 02:27:22;;;;;;;1.67;1.30;;;24.60;96.80;;;;;;5002006;28;21090;-54
2023/07/16 02:29:49;;;;;;;1.83;1.30;;;24.60;97.20;;;;;;5003038;28;20460;-52
2023/07/16 02:32:15;;;;;;;1.77;1.37;;;24.60;96.80;;;;;;5000008;28;20457;-52
2023/07/16 02:34:42;;;;;;;1.60;1.50;;;24.60;97.10;;;;;;5001926;28;20459;-56
2023/07/16 02:37:09;;;;;;;1.70;1.60;;;24.60;96.80;;;;;;5001558;28;20995;-56
2023/07/16 02:39:37;;;;;;;1.90;1.70;;;24.60;96.70;;;;;;5001182;28;20475;-57
2023/07/16 02:42:04;;;;;;;1.40;1.30;;;24.60;96.70;;;;;;5000811;28;20983;-53
2023/07/16 02:44:31;;;;;;;1.97;1.40;;;24.60;96.70;;;;;;4994246;28;20538;-55
2023/07/16 02:46:58;;;;;;;2.10;1.53;;;24.60;96.70;;;;;;4998246;28;20995;-55
2023/07/16 02:49:24;;;;;;;1.70;1.60;;;24.60;96.70;;;;;;4998187;28;20463;-56
2023/07/16 02:51:51;;;;;;;1.97;1.10;;;24.60;96.70;;;;;;4994805;28;20467;-53
2023/07/16 02:54:18;;;;;;;1.43;1.30;;;24.60;96.70;;;;;;4998582;28;20487;-57
2023/07/16 02:56:46;;;;;;;1.87;1.67;;;24.60;96.60;;;;;;4998086;28;20466;-52
2023/07/16 02:59:12;;;;;;;1.90;1.73;;;24.60;96.60;;;;;;4995270;28;20467;-53
2023/07/16 03:01:39;;;;;;;1.87;1.50;;;24.60;96.60;;;;;;4993785;28;20493;-58
2023/07/16 03:04:06;;;;;;;1.60;1.50;;;24.60;96.60;;;;;;4997692;28;21098;-56
2023/07/16 03:06:32;;;;;;;1.70;1.47;;;24.50;96.50;;;;;;4996584;28;20686;-50
2023/07/16 03:08:59;;;;;;;2.20;1.80;;;24.60;96.60;;;;;;4994576;28;20510;-55
2023/07/16 03:11:26;;;;;;;1.77;1.67;;;24.50;96.50;;;;;;4993192;28;20474;-57
2023/07/16 03:13:54;;;;;;;1.90;1.70;;;24.60;96.60;;;;;;4997285;28;20467;-56
2023/07/16 03:16:20;;;;;;;1.73;1.30;;;24.60;96.60;;;;;;4994973;28;20463;-59
2023/07/16 03:18:48;;;;;;;1.53;1.43;;;24.50;96.50;;;;;;5000152;28;20685;-57
2023/07/16 03:21:14;;;;;;;2.00;1.27;;;24.50;96.50;;;;;;4999753;28;20455;-55
2023/07/16 03:23:41;;;;;;;1.93;1.70;;;24.50;96.50;;;;;;4996415;28;20463;-57
2023/07/16 03:26:08;;;;;;;1.43;1.33;;;24.50;96.50;;;;;;4993329;28;20854;-55
2023/07/16 03:28:34;;;;;;;1.50;1.40;;;24.50;96.40;;;;;;5002342;28;20852;-55
2023/07/16 03:31:02;;;;;;;2.00;1.80;;;24.60;96.50;;;;;;5001622;28;20471;-57
2023/07/16 03:33:29;;;;;;;1.60;1.47;;;24.50;96.40;;;;;;5002705;28;20460;-56
2023/07/16 03:35:56;;;;;;;1.97;1.73;;;24.50;96.40;;;;;;5000213;28;20865;-55
2023/07/16 03:38:22;;;;;;;1.77;1.67;;;24.50;96.40;;;;;;4999657;28;20461;-52
2023/07/16 03:40:50;;;;;;;1.50;1.40;;;24.50;96.40;;;;;;5002594;28;20460;-53
2023/07/16 03:43:18;;;;;;;1.70;1.60;;;24.50;96.30;;;;;;5001370;28;20471;-52
2023/07/16 03:45:44;;;;;;;1.90;1.57;;;24.50;96.40;;;;;;4999587;28;20459;-54
2023/07/16 03:48:12;;;;;;;1.77;1.67;;;24.50;96.40;;;;;;5001760;28;20495;-56
2023/07/16 03:50:39;;;;;;;2.30;1.53;;;24.50;96.30;;;;;;4997247;28;20470;-58
2023/07/16 03:53:06;;;;;;;1.83;1.40;;;24.50;96.30;;;;;;5003332;28;20466;-55
2023/07/16 03:55:32;;;;;;;1.40;1.30;;;24.50;96.30;;;;;;5002330;28;20467;-54
2023/07/16 03:57:59;;;;;;;1.83;1.73;;;24.50;96.30;;;;;;4999070;28;20975;-55
2023/07/16 04:00:26;;;;;;;1.93;1.67;;;24.50;96.30;;;;;;5002741;28;20471;-55
2023/07/16 04:02:53;;;;;;;1.43;1.30;;;24.50;96.30;;;;;;5008885;28;20487;-55
2023/07/16 04:05:21;;;;;;;1.60;1.50;;;24.50;96.30;;;;;;5007604;28;20478;-54
2023/07/16 04:07:47;;;;;;;1.37;1.27;;;24.50;96.30;;;;;;5000457;28;20490;-53
2023/07/16 04:10:14;;;;;;;1.67;1.30;;;24.50;96.20;;;;;;5000849;28;21107;-58
2023/07/16 04:12:41;;;;;;;1.60;1.50;;;24.50;96.20;;;;;;5005704;28;20455;-53
2023/07/16 04:15:10;;;;;;;2.23;1.40;;;24.50;96.20;;;;;;5016676;28;20470;-52
2023/07/16 04:17:37;;;;;;;1.73;1.50;;;24.50;96.20;;;;;;5015959;28;20475;-53
2023/07/16 04:20:06;;;;;;;1.57;1.47;;;24.50;96.20;;;;;;5015759;28;21033;-50
2023/07/16 04:22:34;;;;;;;2.70;1.67;;;24.50;96.20;;;;;;5009297;28;20455;-57
2023/07/16 04:25:01;;;;;;;1.57;1.47;;;24.50;96.20;;;;;;5007631;28;20466;-58
2023/07/16 04:27:27;;;;;;;1.60;1.47;;;24.50;96.20;;;;;;5006761;28;20963;-57
2023/07/16 04:29:54;;;;;;;1.90;1.80;;;24.50;96.20;;;;;;5006589;28;20451;-54
2023/07/16 04:32:21;;;;;;;1.93;1.73;;;24.50;96.20;;;;;;5009120;28;20463;-55
2023/07/16 04:34:47;;;;;;;1.37;1.23;;;24.50;96.20;;;;;;5005886;28;20479;-53
2023/07/16 04:37:14;;;;;;;1.50;1.40;;;24.50;96.20;;;;;;5004519;28;20699;-55
2023/07/16 04:39:42;;;;;;;2.10;1.67;;;24.50;96.20;;;;;;5004522;28;21259;-52
2023/07/16 04:42:09;;;;;;;1.60;1.40;;;24.50;96.10;;;;;;5005413;28;20463;-54
2023/07/16 04:44:35;;;;;;;1.30;1.20;;;24.50;96.10;;;;;;5005866;28;20472;-56
2023/07/16 04:47:02;;;;;;;1.60;1.40;;;24.50;96.10;;;;;;5002601;28;20891;-53
2023/07/16 04:49:29;;;;;;;1.50;1.30;;;24.50;96.10;;;;;;5005676;28;20483;-52
2023/07/16 04:51:55;;;;;;;1.67;1.43;;;24.50;96.10;;;;;;5004183;28;20998;-53
2023/07/16 04:54:22;;;;;;;1.87;1.70;;;24.50;96.10;;;;;;5004620;28;20464;-54
2023/07/16 04:56:50;;;;;;;2.07;1.50;;;24.50;96.10;;;;;;5006172;28;20466;-56
2023/07/16 04:59:17;;;;;;;1.50;1.10;;;24.50;96.10;;;;;;5004925;28;20464;-54
2023/07/16 05:01:43;;;;;;;1.80;1.40;;;24.40;96.10;;;;;;5005255;28;20471;-55
2023/07/16 05:04:10;;;;;;;1.60;1.50;;;24.50;96.10;;;;;;5004003;28;20873;-55
2023/07/16 05:06:37;;;;;;;1.50;1.40;;;24.50;96.40;;;;;;5002827;28;20464;-55
2023/07/16 05:09:04;;;;;;;1.97;1.40;;;24.50;96.10;;;;;;5003505;28;20499;-53
2023/07/16 05:11:30;;;;;;;1.87;1.67;;;24.40;96.00;;;;;;5004263;28;20462;-52
2023/07/16 05:13:58;;;;;;;1.67;1.43;;;24.40;96.00;;;;;;5002909;28;20489;-50
2023/07/16 05:16:25;;;;;;;1.40;1.20;;;24.40;96.00;;;;;;5002680;28;20456;-54
2023/07/16 05:18:52;;;;;;;1.73;1.60;;;24.40;96.00;;;;;;5003039;28;20947;-53
2023/07/16 05:21:18;;;;;;;1.40;1.27;;;24.40;96.00;;;;;;5002174;28;20502;-52
2023/07/16 05:23:45;;;;;;;1.40;1.30;;;24.40;95.90;;;;;;5004455;28;20452;-54
2023/07/16 05:26:12;;;;;;;2.20;1.67;;;24.50;96.00;;;;;;5003185;28;20452;-53
2023/07/16 05:28:38;;;;;;;3.33;1.90;;;24.40;96.00;;;;;;5003272;28;20480;-54
2023/07/16 05:31:06;;;;;;;1.30;1.10;;;24.40;96.00;;;;;;5003555;28;20462;-54
2023/07/16 05:33:33;;;;;;;2.00;1.40;;;24.40;95.90;;;;;;5004015;28;20806;-54
2023/07/16 05:36:00;;;;;;;1.50;1.30;;;24.40;95.90;;;;;;5003184;28;20486;-57
2023/07/16 05:38:26;;;;;;;1.87;1.50;;;24.40;95.90;;;;;;5004945;28;20472;-53
2023/07/16 05:40:53;;;;;;;1.70;1.60;;;24.40;95.90;;;;;;5004699;28;20983;-55
2023/07/16 05:43:20;;;;;;;1.87;1.50;;;24.40;96.00;;;;;;5004325;28;20458;-58
2023/07/16 05:45:47;;;;;;;1.87;1.50;;;24.40;96.00;;;;;;5003829;28;20471;-55
2023/07/16 05:48:15;;;;;;;2.10;1.43;;;24.40;96.10;;;;;;5005291;28;20489;-53
2023/07/16 05:50:44;;;;;;;1.40;1.30;;;24.40;96.00;;;;;;5005224;28;20474;-58
2023/07/16 05:53:10;;;;;;;1.43;1.20;;;24.40;96.00;;;;;;5005013;28;20460;-53
2023/07/16 05:55:37;;;;;;;1.50;1.30;;;24.40;96.00;;;;;;5005374;28;20463;-56
2023/07/16 05:58:04;;;;;;;2.00;1.60;;;24.40;96.00;;;;;;5005244;28;20467;-56
2023/07/16 06:00:30;;;;;;;1.63;1.53;;;24.40;96.00;;;;;;5001800;28;20478;-55
2023/07/16 06:02:57;;;;;;;1.23;1.13;;;24.40;96.00;;;;;;5004908;28;20902;-57
2023/07/16 06:05:26;;;;;;;2.13;1.20;;;24.40;96.00;;;;;;5005282;28;20458;-55
2023/07/16 06:07:53;;;;;;;1.57;1.37;;;24.40;96.40;;;;;;5004810;28;20456;-56
2023/07/16 06:10:19;;;;;;;1.40;1.30;;;24.40;96.00;;;;;;5004657;28;20452;-57
2023/07/16 06:12:46;;;;;;;2.47;1.60;;;24.40;96.00;;;;;;5003785;28;21189;-54
2023/07/16 06:15:13;;;;;;;1.70;1.50;;;24.40;96.20;;;;;;5001356;28;21380;-56
2023/07/16 06:17:39;;;;;;;1.77;1.43;;;24.40;96.10;;;;;;5006327;28;20455;-54
2023/07/16 06:20:08;;;;;;;1.73;1.60;;;24.40;96.10;;;;;;5005823;28;20474;-55
2023/07/16 06:22:36;;;;;;;2.10;1.90;;;24.40;96.10;;;;;;5004301;28;20972;-54
2023/07/16 06:25:04;;;;;;;1.27;1.17;;;24.40;96.00;;;;;;5004306;28;20471;-55
2023/07/16 06:27:31;;;;;;;1.80;1.40;;;24.40;96.00;;;;;;5005008;28;20983;-55
2023/07/16 06:29:58;;;;;;;1.77;1.10;;;24.40;96.10;;;;;;5004894;28;20489;-57
2023/07/16 06:32:24;;;;;;;3.10;1.57;;;24.40;96.10;;;;;;5006694;28;20466;-55
2023/07/16 06:34:51;;;;;;;1.73;1.60;;;24.40;96.10;;;;;;5008934;28;21029;-57
2023/07/16 06:37:18;;;;;;;2.30;1.70;;;24.40;96.20;;;;;;5003398;28;20912;-57
2023/07/16 06:39:46;;;;;;;1.50;1.40;;;24.40;96.10;;;;;;5005230;28;20474;-56
2023/07/16 06:42:12;;;;;;;1.80;1.53;;;24.40;96.10;;;;;;5008076;28;20471;-56
2023/07/16 06:44:39;;;;;;;1.87;1.63;;;24.40;96.10;;;;;;5004199;28;20467;-54
2023/07/16 06:47:06;;;;;;;2.40;1.57;;;24.40;96.10;;;;;;5007185;28;20463;-55
2023/07/16 06:49:32;;;;;;;2.33;1.60;;;24.40;96.10;;;;;;5017600;28;20475;-55
2023/07/16 06:52:02;;;;;;;1.70;1.60;;;24.40;96.10;;;;;;5014242;28;20459;-53
2023/07/16 06:54:28;;;;;;;2.20;1.77;;;24.40;96.00;;;;;;5005994;28;20884;-57
2023/07/16 06:56:56;;;;;;;3.97;2.03;;;24.30;96.00;;;;;;5014152;28;20473;-56
2023/07/16 06:59:23;;;;;;;3.53;1.97;;;24.30;96.00;;;;;;5013354;28;20955;-56
2023/07/16 07:01:50;;;;;;;3.73;1.97;;;24.30;95.90;;;;;;5011440;28;20456;-55
2023/07/16 07:04:17;;;;;;;4.37;1.83;;;24.30;95.90;;;;;;5006243;28;20994;-56
2023/07/16 07:06:43;;;;;;;1.80;1.40;;;24.30;95.90;;;;;;5004139;28;20463;-54
2023/07/16 07:09:10;;;;;;;2.20;2.00;;;24.30;95.90;;;;;;5003560;28;21006;-54
2023/07/16 07:11:37;;;;;;;2.20;2.00;;;24.30;95.90;;;;;;5008630;28;20467;-53
2023/07/16 07:14:05;;;;;;;3.00;1.77;;;24.30;95.80;;;;;;5006723;28;20467;-52
2023/07/16 07:16:31;;;;;;;2.47;1.93;;;24.30;95.80;;;;;;5004943;28;20981;-54
2023/07/16 07:18:58;;;;;;;2.80;1.83;;;24.30;95.80;;;;;;5002346;28;20471;-57
2023/07/16 07:21:25;;;;;;;1.90;1.60;;;24.30;95.80;;;;;;5006056;28;21026;-54
2023/07/16 07:23:51;;;;;;;4.03;1.97;;;24.30;95.80;;;;;;5003003;28;20455;-53
2023/07/16 07:26:18;;;;;;;2.83;2.17;;;24.30;95.80;;;;;;5004613;28;21122;-54
2023/07/16 07:28:45;;;;;;;2.20;2.00;;;24.30;95.70;;;;;;5005459;28;20478;-57
2023/07/16 07:31:13;;;;;;;4.80;1.90;;;24.30;95.70;;;;;;5009120;28;20467;-53
2023/07/16 07:33:39;;;;;;;2.27;2.03;;;24.30;95.70;;;;;;5000140;28;20972;-53
2023/07/16 07:36:06;;;;;;;5.70;1.80;;;24.30;95.70;;;;;;5003474;28;20483;-58
2023/07/16 07:38:33;;;;;;;2.73;2.37;;;24.30;95.70;;;;;;5009171;28;20978;-55
2023/07/16 07:41:00;;;;;;;2.30;1.90;;;24.30;95.60;;;;;;5008770;28;20483;-53
2023/07/16 07:43:27;;;;;;;2.20;1.90;;;24.30;95.70;;;;;;5008775;28;20464;-55
2023/07/16 07:45:54;;;;;;;2.43;1.70;;;24.30;95.70;;;;;;5006872;28;20879;-52
2023/07/16 07:48:22;;;;;;;2.50;1.80;;;24.30;95.60;;;;;;5004663;28;20946;-55
2023/07/16 07:50:49;;;;;;;4.40;2.40;;;24.30;95.70;;;;;;5006375;28;20583;-55
2023/07/16 07:53:17;;;;;;;3.87;3.27;;;24.30;95.00;;;;;;5006130;28;20458;-52
2023/07/16 07:55:44;;;;;;;3.90;3.43;;;24.30;93.40;;;;;;5007971;28;21133;-54
2023/07/16 07:58:11;;;;;;;6.27;3.00;;;24.30;92.60;;;;;;5007429;28;20509;-54
2023/07/16 08:00:38;;;;;;;6.87;3.97;;;24.20;91.70;;;;;;5005243;28;20466;-51
2023/07/16 08:03:05;;;;;;;3.73;3.23;;;24.20;91.30;;;;;;5004656;28;20470;-54
2023/07/16 08:05:34;;;;;;;7.37;3.90;;;24.20;91.10;;;;;;5008027;28;20473;-54
2023/07/16 08:08:01;;;;;;;5.33;3.97;;;24.20;90.60;;;;;;5004867;28;20582;-51
2023/07/16 08:10:27;;;;;;;13.00;5.10;;;24.10;90.00;;;;;;5004099;28;20488;-52
2023/07/16 08:12:54;;;;;;;4.30;3.00;;;24.10;90.00;;;;;;5007609;28;21075;-51
2023/07/16 08:15:21;;;;;;;6.50;3.93;;;24.10;89.50;;;;;;5002290;28;20972;-55
2023/07/16 08:17:48;;;;;;;6.27;4.23;;;24.10;89.30;;;;;;5008159;28;21128;-51
2023/07/16 08:20:14;;;;;;;4.93;3.30;;;24.10;89.00;;;;;;5004778;28;21619;-55
2023/07/16 08:22:42;;;;;;;5.93;3.70;;;24.00;88.40;;;;;;5002088;28;20839;-56
2023/07/16 08:25:10;;;;;;;8.07;4.30;;;24.00;88.50;;;;;;5005279;28;20483;-53
2023/07/16 08:27:36;;;;;;;6.17;3.90;;;24.00;87.50;;;;;;5007005;28;21005;-56
2023/07/16 08:30:03;;;;;;;5.70;4.30;;;24.00;87.10;;;;;;5008052;28;20474;-56
2023/07/16 08:32:30;;;;;;;7.10;4.00;;;24.00;86.90;;;;;;5003044;28;20456;-53
2023/07/16 08:34:57;;;;;;;4.73;3.90;;;24.00;86.80;;;;;;5006484;28;20493;-56
2023/07/16 08:37:23;;;;;;;7.53;3.93;;;24.00;86.90;;;;;;5010584;28;21001;-54
2023/07/16 08:39:53;;;;;;;10.13;5.20;;;24.00;86.50;;;;;;5012161;28;20504;-50
2023/07/16 08:42:20;;;;;;;9.07;5.00;;;24.00;86.40;;;;;;5009009;28;20503;-57
2023/07/16 08:44:49;;;;;;;14.40;8.10;;;24.00;86.30;;;;;;5008334;28;20550;-57
2023/07/16 08:47:16;;;;;;;13.93;6.83;;;24.00;86.50;;;;;;5003985;28;20924;-54
2023/07/16 08:49:51;;;;;;;10.90;5.70;;;24.00;85.60;;;;;;5004767;28;20481;-56
2023/07/16 08:52:19;;;;;;;10.70;5.87;;;24.00;85.80;;;;;;5006432;28;21092;-54
2023/07/16 08:54:46;;;;;;;10.60;5.60;;;24.00;85.70;;;;;;5009718;28;20455;-55
2023/07/16 08:57:15;;;;;;;12.90;5.50;;;24.00;85.80;;;;;;5006766;28;20471;-53
2023/07/16 08:59:41;;;;;;;9.10;5.20;;;24.00;85.70;;;;;;5009531;28;20470;-53
2023/07/16 09:02:08;;;;;;;9.07;6.03;;;24.00;85.70;;;;;;5010168;28;20478;-52
2023/07/16 09:04:35;;;;;;;12.30;5.57;;;24.00;86.00;;;;;;5013475;28;20469;-53
2023/07/16 09:07:02;;;;;;;7.80;5.00;;;24.00;87.30;;;;;;5011421;28;20558;-57
2023/07/16 09:09:29;;;;;;;7.20;5.23;;;24.00;87.40;;;;;;5012108;28;20551;-55
2023/07/16 09:11:56;;;;;;;6.03;4.50;;;24.00;87.40;;;;;;5011676;28;21062;-53
2023/07/16 09:14:24;;;;;;;8.57;5.47;;;24.00;87.80;;;;;;5012881;28;20460;-57
2023/07/16 09:16:51;;;;;;;7.53;5.00;;;24.00;87.80;;;;;;5005711;28;20463;-57
2023/07/16 09:19:19;;;;;;;6.20;4.73;;;24.00;87.90;;;;;;5010201;28;20463;-55
2023/07/16 09:21:47;;;;;;;6.83;4.80;;;24.00;88.10;;;;;;5008261;28;20983;-56
2023/07/16 09:24:14;;;;;;;5.93;4.60;;;24.00;88.20;;;;;;5018808;28;20471;-53
2023/07/16 09:26:49;;;;;;;7.07;5.83;;;24.00;88.50;;;;;;5011316;28;20510;-54
2023/07/16 09:29:15;;;;;;;7.67;4.80;;;24.10;88.60;;;;;;5010667;28;20569;-57
2023/07/16 09:31:57;;;;;;;7.17;4.57;;;24.10;88.60;;;;;;5014977;28;20963;-56
2023/07/16 09:34:23;;;;;;;6.97;5.57;;;24.10;88.80;;;;;;5015892;28;20454;-56
2023/07/16 09:36:51;;;;;;;7.30;4.83;;;24.10;88.90;;;;;;5012308;28;20487;-54
2023/07/16 09:39:19;;;;;;;7.10;5.47;;;24.10;88.90;;;;;;5013948;28;20858;-56
2023/07/16 09:41:46;;;;;;;10.00;5.50;;;24.10;89.10;;;;;;5016773;28;20586;-55
2023/07/16 09:44:14;;;;;;;6.97;5.00;;;24.10;89.10;;;;;;5014126;28;20466;-54
2023/07/16 09:46:40;;;;;;;8.23;5.00;;;24.10;89.10;;;;;;5016334;28;20461;-55
2023/07/16 09:49:09;;;;;;;7.10;5.03;;;24.10;89.10;;;;;;5018027;28;20801;-54
2023/07/16 09:51:37;;;;;;;6.23;4.73;;;24.10;89.10;;;;;;5019735;28;20481;-54
2023/07/16 09:54:04;;;;;;;7.73;4.97;;;24.10;89.30;;;;;;5010886;28;20451;-57
2023/07/16 09:56:36;;;;;;;5.43;4.53;;;24.10;89.30;;;;;;5009582;28;20458;-58
2023/07/16 09:59:03;;;;;;;8.20;4.10;;;24.10;89.50;;;;;;5003199;28;20460;-59
2023/07/16 10:01:30;;;;;;;13.27;5.20;;;24.10;89.50;;;;;;5006170;28;20473;-53
2023/07/16 10:03:57;;;;;;;17.13;5.90;;;24.10;89.60;;;;;;5005333;28;20460;-54
2023/07/16 10:06:25;;;;;;;8.03;5.50;;;24.10;89.70;;;;;;5004531;28;20461;-54
2023/07/16 10:08:52;;;;;;;21.00;6.53;;;24.10;90.00;;;;;;5003519;28;20470;-52
2023/07/16 10:11:19;;;;;;;17.80;5.83;;;24.10;90.00;;;;;;5001985;28;20976;-62
2023/07/16 10:13:50;;;;;;;15.03;6.17;;;24.10;90.20;;;;;;5002189;28;20847;-59
2023/07/16 10:16:22;;;;;;;16.73;6.10;;;24.20;90.40;;;;;;5002743;28;20550;-59
2023/07/16 10:18:53;;;;;;;7.40;5.57;;;24.20;90.60;;;;;;4999444;28;21339;-62
2023/07/16 10:21:25;;;;;;;14.27;5.90;;;24.20;90.70;;;;;;5001460;28;20879;-62
2023/07/16 10:23:59;;;;;;;15.07;5.83;;;24.20;90.80;;;;;;5002244;28;20955;-56
2023/07/16 10:26:28;;;;;;;18.20;6.10;;;24.20;91.00;;;;;;5003429;28;20951;-57
2023/07/16 10:28:55;;;;;;;15.67;5.07;;;24.20;91.00;;;;;;5002034;28;20544;-57
2023/07/16 10:31:23;;;;;;;14.50;6.43;;;24.20;91.00;;;;;;5003621;28;20484;-57
2023/07/16 10:34:00;;;;;;;13.07;5.10;;;24.20;91.00;;;;;;5003759;28;20954;-59
2023/07/16 10:36:28;;;;;;;11.90;5.00;;;24.20;91.00;;;;;;5002424;28;20570;-60
2023/07/16 10:38:55;;;;;;;12.00;5.80;;;24.20;91.10;;;;;;5002371;28;20452;-61
2023/07/16 10:41:22;;;;;;;10.23;6.20;;;24.20;91.20;;;;;;5001260;28;20472;-55
2023/07/16 10:43:50;;;;;;;8.50;4.70;;;24.30;91.20;;;;;;5003241;28;21088;-58
2023/07/16 10:46:17;;;;;;;11.67;4.93;;;24.30;91.20;;;;;;4998993;28;20459;-60
2023/07/16 10:48:48;;;;;;;7.97;4.73;;;24.30;91.10;;;;;;5002359;28;20463;-60
2023/07/16 10:51:15;;;;;;;9.50;4.70;;;24.30;91.20;;;;;;5002247;28;20580;-60
2023/07/16 10:53:44;;;;;;;8.13;4.70;;;24.30;91.10;;;;;;5002365;28;20467;-61
2023/07/16 10:56:11;;;;;;;13.40;5.27;;;24.40;91.20;;;;;;5000642;28;20459;-59
2023/07/16 10:58:40;;;;;;;13.90;5.20;;;24.40;91.20;;;;;;4999400;28;20468;-62
2023/07/16 11:01:09;;;;;;;13.20;5.23;;;24.40;91.20;;;;;;5001239;28;20514;-66
2023/07/16 11:03:36;;;;;;;6.50;5.00;;;24.50;91.30;;;;;;5002914;28;20455;-62
2023/07/16 11:06:07;;;;;;;9.97;5.03;;;24.50;91.20;;;;;;5001921;28;20979;-62
2023/07/16 11:08:33;;;;;;;6.90;4.20;;;24.50;91.20;;;;;;5003850;28;20463;-56
2023/07/16 11:11:01;;;;;;;7.20;3.93;;;24.50;91.10;;;;;;5001846;28;20968;-63
2023/07/16 11:13:28;;;;;;;4.80;4.03;;;24.50;91.10;;;;;;5002648;28;20464;-61
2023/07/16 11:15:55;;;;;;;6.97;4.40;;;24.60;91.10;;;;;;4998509;28;20457;-62
2023/07/16 11:18:23;;;;;;;5.90;4.53;;;24.60;91.10;;;;;;5000805;28;20986;-66
2023/07/16 11:20:52;;;;;;;7.03;4.20;;;24.60;91.00;;;;;;5003078;28;20551;-68
2023/07/16 11:23:18;;;;;;;7.53;4.10;;;24.60;90.90;;;;;;5001585;28;20868;-63
2023/07/16 11:25:47;;;;;;;8.03;5.03;;;24.60;90.90;;;;;;5001426;28;20466;-64
2023/07/16 11:28:15;;;;;;;15.13;4.77;;;24.70;90.80;;;;;;5002108;28;21027;-64
2023/07/16 11:30:42;;;;;;;6.83;4.50;;;24.70;90.70;;;;;;5000349;28;21338;-63
2023/07/16 11:33:11;;;;;;;5.37;4.20;;;24.80;90.80;;;;;;4999815;28;20816;-62
2023/07/16 11:35:38;;;;;;;7.00;4.37;;;24.80;90.70;;;;;;5002872;28;20595;-62
2023/07/16 11:38:05;;;;;;;5.50;4.63;;;24.80;90.70;;;;;;5002710;28;20456;-59
2023/07/16 11:40:35;;;;;;;5.97;3.83;;;24.90;90.70;;;;;;5001644;28;20529;-55
2023/07/16 11:43:09;;;;;;;6.80;3.70;;;24.90;90.60;;;;;;5003387;28;20464;-57
2023/07/16 11:45:37;;;;;;;9.10;4.27;;;24.90;90.40;;;;;;5002141;28;20875;-64
2023/07/16 11:48:04;;;;;;;6.03;3.50;;;25.00;90.50;;;;;;5001273;28;20459;-57
2023/07/16 11:50:31;;;;;;;5.63;4.30;;;25.00;90.30;;;;;;5004149;28;20640;-59
2023/07/16 11:53:01;;;;;;;6.40;3.80;;;25.00;90.20;;;;;;5002253;28;20779;-59
2023/07/16 11:55:28;;;;;;;6.40;3.50;;;25.00;88.80;;;;;;5004287;28;20472;-56
2023/07/16 11:57:56;;;;;;;6.40;4.00;;;25.00;84.60;;;;;;5006198;28;20491;-64
2023/07/16 12:00:23;;;;;;;6.77;3.37;;;25.00;81.40;;;;;;5004544;28;20518;-66
2023/07/16 12:02:51;;;;;;;3.73;3.20;;;25.00;79.80;;;;;;5004253;28;20469;-62
2023/07/16 12:05:18;;;;;;;7.17;4.00;;;24.90;78.50;;;;;;5003705;28;21033;-57
2023/07/16 12:07:45;;;;;;;4.40;3.03;;;24.90;78.50;;;;;;5005349;28;20463;-58
2023/07/16 12:10:12;;;;;;;7.67;3.57;;;24.90;77.40;;;;;;5007338;28;20503;-54
2023/07/16 12:12:38;;;;;;;5.07;3.50;;;24.90;76.30;;;;;;5013216;28;20474;-58
2023/07/16 12:15:06;;;;;;;4.37;3.13;;;24.90;76.20;;;;;;5012773;28;20693;-56
2023/07/16 12:17:33;;;;;;;5.30;3.60;;;24.90;74.60;;;;;;5010264;28;20478;-56
2023/07/16 12:20:01;;;;;;;5.87;3.50;;;24.90;74.80;;;;;;5017952;28;20468;-55
2023/07/16 12:22:28;;;;;;;3.47;3.17;;;24.90;74.90;;;;;;5006059;28;20461;-55
2023/07/16 12:24:55;;;;;;;5.83;3.20;;;24.90;74.20;;;;;;5005837;28;20808;-56
2023/07/16 12:27:22;;;;;;;3.93;3.23;;;24.90;74.60;;;;;;5009846;28;20444;-54
2023/07/16 12:29:48;;;;;;;7.10;3.77;;;25.00;74.40;;;;;;5007777;28;20821;-64
2023/07/16 12:32:15;;;;;;;6.17;3.13;;;24.90;74.50;;;;;;5006335;28;20465;-63
2023/07/16 12:34:42;;;;;;;5.30;3.57;;;25.00;74.50;;;;;;5012729;28;20474;-62
2023/07/16 12:37:10;;;;;;;8.63;3.77;;;25.00;73.60;;;;;;5007721;28;20456;-57
2023/07/16 12:39:37;;;;;;;4.63;3.10;;;25.00;73.60;;;;;;5007037;28;20979;-56
2023/07/16 12:42:04;;;;;;;3.40;3.07;;;25.00;74.00;;;;;;5006069;28;21008;-65
2023/07/16 12:44:31;;;;;;;2.97;2.70;;;25.00;73.90;;;;;;5006319;28;20459;-58
2023/07/16 12:46:57;;;;;;;5.10;3.60;;;25.00;74.70;;;;;;5005618;28;20472;-62